sensor_id;sensor_type;location;lat;lon;timestamp;P1;durP1;ratioP1;P2;durP2;ratioP2
32333;SDS011;18810;53.040;8.850;2023-01-16T00:01:55;7.60;;;3.25;;
32333;SDS011;18810;53.040;8.850;2023-01-16T00:04:22;8.00;;;4.18;;
32333;SDS011;18810;53.040;8.850;2023-01-16T00:06:47;7.22;;;3.50;;
32333;SDS011;18810;53.040;8.850;2023-01-16T00:09:13;5.15;;;3.45;;
32333;SDS011;18810;53.040;8.850;2023-01-16T00:11:39;4.82;;;3.08;;
32333;SDS011;18810;53.040;8.850;2023-01-16T00:14:05;6.13;;;2.80;;
32333;SDS011;18810;53.040;8.850;2023-01-16T00:16:30;6.03;;;2.80;;
32333;SDS011;18810;53.040;8.850;2023-01-16T00:18:57;5.47;;;2.40;;
32333;SDS011;18810;53.040;8.850;2023-01-16T00:21:22;6.88;;;2.88;;
32333;SDS011;18810;53.040;8.850;2023-01-16T00:23:51;4.72;;;3.03;;
32333;SDS011;18810;53.040;8.850;2023-01-16T00:26:18;5.85;;;2.50;;
32333;SDS011;18810;53.040;8.850;2023-01-16T00:28:44;6.65;;;2.80;;
32333;SDS011;18810;53.040;8.850;2023-01-16T00:31:09;6.88;;;3.15;;
32333;SDS011;18810;53.040;8.850;2023-01-16T00:33:36;6.82;;;2.85;;
32333;SDS011;18810;53.040;8.850;2023-01-16T00:36:02;4.22;;;2.85;;
32333;SDS011;18810;53.040;8.850;2023-01-16T00:38:28;5.70;;;2.95;;
32333;SDS011;18810;53.040;8.850;2023-01-16T00:40:55;6.18;;;2.97;;
32333;SDS011;18810;53.040;8.850;2023-01-16T00:43:21;6.70;;;2.80;;
32333;SDS011;18810;53.040;8.850;2023-01-16T00:45:47;6.38;;;2.80;;
32333;SDS011;18810;53.040;8.850;2023-01-16T00:48:13;6.05;;;2.97;;
32333;SDS011;18810;53.040;8.850;2023-01-16T00:50:39;6.35;;;3.15;;
32333;SDS011;18810;53.040;8.850;2023-01-16T00:53:04;7.28;;;3.15;;
32333;SDS011;18810;53.040;8.850;2023-01-16T00:55:32;7.07;;;3.35;;
32333;SDS011;18810;53.040;8.850;2023-01-16T00:57:58;4.20;;;3.17;;
32333;SDS011;18810;53.040;8.850;2023-01-16T01:00:24;5.78;;;3.10;;
32333;SDS011;18810;53.040;8.850;2023-01-16T01:02:50;4.72;;;3.00;;
32333;SDS011;18810;53.040;8.850;2023-01-16T01:05:16;5.93;;;3.33;;
32333;SDS011;18810;53.040;8.850;2023-01-16T01:07:42;6.20;;;2.60;;
32333;SDS011;18810;53.040;8.850;2023-01-16T01:10:08;4.07;;;2.83;;
32333;SDS011;18810;53.040;8.850;2023-01-16T01:12:34;6.55;;;2.78;;
32333;SDS011;18810;53.040;8.850;2023-01-16T01:15:04;7.35;;;2.97;;
32333;SDS011;18810;53.040;8.850;2023-01-16T01:17:30;6.68;;;3.33;;
32333;SDS011;18810;53.040;8.850;2023-01-16T01:19:56;8.95;;;3.08;;
32333;SDS011;18810;53.040;8.850;2023-01-16T01:22:21;6.35;;;2.88;;
32333;SDS011;18810;53.040;8.850;2023-01-16T01:24:48;10.60;;;3.72;;
32333;SDS011;18810;53.040;8.850;2023-01-16T01:27:14;9.15;;;3.20;;
32333;SDS011;18810;53.040;8.850;2023-01-16T01:29:41;4.30;;;2.90;;
32333;SDS011;18810;53.040;8.850;2023-01-16T01:32:07;5.22;;;2.78;;
32333;SDS011;18810;53.040;8.850;2023-01-16T01:34:33;6.55;;;2.88;;
32333;SDS011;18810;53.040;8.850;2023-01-16T01:37:02;8.27;;;3.40;;
32333;SDS011;18810;53.040;8.850;2023-01-16T01:41:56;8.52;;;3.58;;
32333;SDS011;18810;53.040;8.850;2023-01-16T01:47:20;7.57;;;3.08;;
32333;SDS011;18810;53.040;8.850;2023-01-16T01:49:51;6.40;;;3.03;;
32333;SDS011;18810;53.040;8.850;2023-01-16T01:52:19;6.90;;;3.33;;
32333;SDS011;18810;53.040;8.850;2023-01-16T01:54:48;9.18;;;3.20;;
32333;SDS011;18810;53.040;8.850;2023-01-16T01:57:22;6.65;;;2.97;;
32333;SDS011;18810;53.040;8.850;2023-01-16T01:59:52;15.13;;;4.05;;
32333;SDS011;18810;53.040;8.850;2023-01-16T02:02:26;7.45;;;3.15;;
32333;SDS011;18810;53.040;8.850;2023-01-16T02:05:02;9.15;;;3.30;;
32333;SDS011;18810;53.040;8.850;2023-01-16T02:07:30;6.00;;;2.80;;
32333;SDS011;18810;53.040;8.850;2023-01-16T02:10:00;9.88;;;2.95;;
32333;SDS011;18810;53.040;8.850;2023-01-16T02:12:30;8.10;;;3.30;;
32333;SDS011;18810;53.040;8.850;2023-01-16T02:14:56;8.25;;;3.05;;
32333;SDS011;18810;53.040;8.850;2023-01-16T02:17:23;5.35;;;2.80;;
32333;SDS011;18810;53.040;8.850;2023-01-16T02:20:27;7.05;;;3.05;;
32333;SDS011;18810;53.040;8.850;2023-01-16T02:39:56;8.43;;;3.22;;
32333;SDS011;18810;53.040;8.850;2023-01-16T02:42:44;8.70;;;3.42;;
32333;SDS011;18810;53.040;8.850;2023-01-16T02:45:21;6.30;;;2.97;;
32333;SDS011;18810;53.040;8.850;2023-01-16T02:50:26;9.45;;;2.90;;
32333;SDS011;18810;53.040;8.850;2023-01-16T02:57:57;6.85;;;2.70;;
32333;SDS011;18810;53.040;8.850;2023-01-16T03:00:25;4.93;;;2.50;;
32333;SDS011;18810;53.040;8.850;2023-01-16T03:02:52;6.13;;;2.40;;
32333;SDS011;18810;53.040;8.850;2023-01-16T03:05:18;8.57;;;2.70;;
32333;SDS011;18810;53.040;8.850;2023-01-16T03:07:48;5.95;;;2.72;;
32333;SDS011;18810;53.040;8.850;2023-01-16T03:13:15;3.88;;;1.92;;
32333;SDS011;18810;53.040;8.850;2023-01-16T03:16:00;5.85;;;2.28;;
32333;SDS011;18810;53.040;8.850;2023-01-16T03:23:56;3.63;;;2.33;;
32333;SDS011;18810;53.040;8.850;2023-01-16T03:37:11;7.00;;;2.60;;
32333;SDS011;18810;53.040;8.850;2023-01-16T03:39:46;6.22;;;2.28;;
32333;SDS011;18810;53.040;8.850;2023-01-16T03:42:22;5.93;;;2.25;;
32333;SDS011;18810;53.040;8.850;2023-01-16T03:44:55;6.82;;;2.55;;
32333;SDS011;18810;53.040;8.850;2023-01-16T03:47:27;7.25;;;2.63;;
32333;SDS011;18810;53.040;8.850;2023-01-16T03:49:59;10.15;;;2.50;;
32333;SDS011;18810;53.040;8.850;2023-01-16T03:52:32;6.55;;;2.60;;
32333;SDS011;18810;53.040;8.850;2023-01-16T03:57:39;6.35;;;2.47;;
32333;SDS011;18810;53.040;8.850;2023-01-16T04:00:11;6.93;;;3.30;;
32333;SDS011;18810;53.040;8.850;2023-01-16T04:07:44;4.28;;;2.22;;
32333;SDS011;18810;53.040;8.850;2023-01-16T04:10:33;3.55;;;1.90;;
32333;SDS011;18810;53.040;8.850;2023-01-16T04:13:06;8.15;;;2.85;;
32333;SDS011;18810;53.040;8.850;2023-01-16T04:15:44;2.58;;;2.00;;
32333;SDS011;18810;53.040;8.850;2023-01-16T04:18:13;5.32;;;2.10;;
32333;SDS011;18810;53.040;8.850;2023-01-16T04:20:39;3.72;;;1.98;;
32333;SDS011;18810;53.040;8.850;2023-01-16T04:23:09;5.18;;;2.15;;
32333;SDS011;18810;53.040;8.850;2023-01-16T04:25:36;5.07;;;2.30;;
32333;SDS011;18810;53.040;8.850;2023-01-16T04:28:02;4.30;;;1.98;;
32333;SDS011;18810;53.040;8.850;2023-01-16T04:30:28;5.07;;;2.42;;
32333;SDS011;18810;53.040;8.850;2023-01-16T04:32:53;3.88;;;1.90;;
32333;SDS011;18810;53.040;8.850;2023-01-16T04:35:19;3.80;;;2.00;;
32333;SDS011;18810;53.040;8.850;2023-01-16T04:37:46;5.75;;;2.15;;
32333;SDS011;18810;53.040;8.850;2023-01-16T04:40:12;3.35;;;1.67;;
32333;SDS011;18810;53.040;8.850;2023-01-16T04:42:37;5.60;;;2.35;;
32333;SDS011;18810;53.040;8.850;2023-01-16T04:45:03;7.93;;;2.08;;
32333;SDS011;18810;53.040;8.850;2023-01-16T04:47:30;6.72;;;2.10;;
32333;SDS011;18810;53.040;8.850;2023-01-16T04:49:55;7.22;;;2.03;;
32333;SDS011;18810;53.040;8.850;2023-01-16T04:52:21;4.25;;;1.92;;
32333;SDS011;18810;53.040;8.850;2023-01-16T04:54:47;5.78;;;2.40;;
32333;SDS011;18810;53.040;8.850;2023-01-16T04:57:12;11.18;;;2.65;;
32333;SDS011;18810;53.040;8.850;2023-01-16T04:59:38;5.82;;;2.17;;
32333;SDS011;18810;53.040;8.850;2023-01-16T05:02:04;2.97;;;1.92;;
32333;SDS011;18810;53.040;8.850;2023-01-16T05:04:30;3.22;;;2.20;;
32333;SDS011;18810;53.040;8.850;2023-01-16T05:06:55;5.80;;;2.08;;
32333;SDS011;18810;53.040;8.850;2023-01-16T05:09:21;8.68;;;2.55;;
32333;SDS011;18810;53.040;8.850;2023-01-16T05:11:47;5.68;;;2.50;;
32333;SDS011;18810;53.040;8.850;2023-01-16T05:14:12;7.40;;;2.13;;
32333;SDS011;18810;53.040;8.850;2023-01-16T05:16:38;4.43;;;2.25;;
32333;SDS011;18810;53.040;8.850;2023-01-16T05:19:08;5.57;;;2.20;;
32333;SDS011;18810;53.040;8.850;2023-01-16T05:21:34;5.93;;;2.17;;
32333;SDS011;18810;53.040;8.850;2023-01-16T05:24:00;5.30;;;2.22;;
32333;SDS011;18810;53.040;8.850;2023-01-16T05:26:26;7.03;;;2.00;;
32333;SDS011;18810;53.040;8.850;2023-01-16T05:28:52;5.18;;;1.98;;
32333;SDS011;18810;53.040;8.850;2023-01-16T05:31:17;8.70;;;2.17;;
32333;SDS011;18810;53.040;8.850;2023-01-16T05:33:43;2.58;;;1.92;;
32333;SDS011;18810;53.040;8.850;2023-01-16T05:36:09;6.72;;;2.50;;
32333;SDS011;18810;53.040;8.850;2023-01-16T05:38:35;4.45;;;2.25;;
32333;SDS011;18810;53.040;8.850;2023-01-16T05:41:01;8.35;;;2.97;;
32333;SDS011;18810;53.040;8.850;2023-01-16T05:43:26;4.53;;;2.22;;
32333;SDS011;18810;53.040;8.850;2023-01-16T05:45:52;6.20;;;2.33;;
32333;SDS011;18810;53.040;8.850;2023-01-16T05:48:18;5.80;;;2.38;;
32333;SDS011;18810;53.040;8.850;2023-01-16T05:50:44;6.57;;;2.50;;
32333;SDS011;18810;53.040;8.850;2023-01-16T05:53:10;4.13;;;2.80;;
32333;SDS011;18810;53.040;8.850;2023-01-16T05:55:39;7.13;;;2.92;;
32333;SDS011;18810;53.040;8.850;2023-01-16T05:58:08;7.30;;;2.72;;
32333;SDS011;18810;53.040;8.850;2023-01-16T06:00:35;5.97;;;2.65;;
32333;SDS011;18810;53.040;8.850;2023-01-16T06:03:01;9.18;;;3.38;;
32333;SDS011;18810;53.040;8.850;2023-01-16T06:05:27;7.97;;;2.45;;
32333;SDS011;18810;53.040;8.850;2023-01-16T06:07:56;2.92;;;1.90;;
32333;SDS011;18810;53.040;8.850;2023-01-16T06:10:22;7.80;;;2.53;;
32333;SDS011;18810;53.040;8.850;2023-01-16T06:12:48;2.70;;;2.20;;
32333;SDS011;18810;53.040;8.850;2023-01-16T06:15:14;4.13;;;2.00;;
32333;SDS011;18810;53.040;8.850;2023-01-16T06:17:40;6.70;;;2.60;;
32333;SDS011;18810;53.040;8.850;2023-01-16T06:20:06;5.97;;;2.30;;
32333;SDS011;18810;53.040;8.850;2023-01-16T06:22:32;5.85;;;2.38;;
32333;SDS011;18810;53.040;8.850;2023-01-16T06:24:58;4.55;;;2.30;;
32333;SDS011;18810;53.040;8.850;2023-01-16T06:27:23;6.15;;;2.30;;
32333;SDS011;18810;53.040;8.850;2023-01-16T06:29:49;8.32;;;2.30;;
32333;SDS011;18810;53.040;8.850;2023-01-16T06:32:15;5.10;;;2.30;;
32333;SDS011;18810;53.040;8.850;2023-01-16T06:34:43;8.65;;;2.40;;
32333;SDS011;18810;53.040;8.850;2023-01-16T06:37:13;3.83;;;2.15;;
32333;SDS011;18810;53.040;8.850;2023-01-16T06:39:38;9.32;;;2.97;;
32333;SDS011;18810;53.040;8.850;2023-01-16T06:42:04;4.97;;;2.30;;
32333;SDS011;18810;53.040;8.850;2023-01-16T06:44:33;2.78;;;2.38;;
32333;SDS011;18810;53.040;8.850;2023-01-16T06:47:00;4.35;;;2.33;;
32333;SDS011;18810;53.040;8.850;2023-01-16T06:49:26;3.78;;;2.40;;
32333;SDS011;18810;53.040;8.850;2023-01-16T06:51:52;5.93;;;2.55;;
32333;SDS011;18810;53.040;8.850;2023-01-16T06:54:18;6.47;;;2.60;;
32333;SDS011;18810;53.040;8.850;2023-01-16T06:56:43;2.63;;;2.03;;
32333;SDS011;18810;53.040;8.850;2023-01-16T06:59:09;4.90;;;2.53;;
32333;SDS011;18810;53.040;8.850;2023-01-16T07:01:35;6.53;;;2.20;;
32333;SDS011;18810;53.040;8.850;2023-01-16T07:04:00;5.07;;;2.53;;
32333;SDS011;18810;53.040;8.850;2023-01-16T07:06:26;4.68;;;2.67;;
32333;SDS011;18810;53.040;8.850;2023-01-16T07:08:52;7.13;;;2.10;;
32333;SDS011;18810;53.040;8.850;2023-01-16T07:11:18;4.00;;;2.05;;
32333;SDS011;18810;53.040;8.850;2023-01-16T07:13:44;6.25;;;2.33;;
32333;SDS011;18810;53.040;8.850;2023-01-16T07:16:10;7.97;;;2.42;;
32333;SDS011;18810;53.040;8.850;2023-01-16T07:18:56;5.20;;;1.92;;
32333;SDS011;18810;53.040;8.850;2023-01-16T07:21:41;6.13;;;2.20;;
32333;SDS011;18810;53.040;8.850;2023-01-16T07:24:28;6.35;;;2.22;;
32333;SDS011;18810;53.040;8.850;2023-01-16T07:26:57;5.35;;;2.83;;
32333;SDS011;18810;53.040;8.850;2023-01-16T07:29:29;3.33;;;2.00;;
32333;SDS011;18810;53.040;8.850;2023-01-16T07:31:57;6.03;;;2.00;;
32333;SDS011;18810;53.040;8.850;2023-01-16T07:34:24;5.90;;;2.35;;
32333;SDS011;18810;53.040;8.850;2023-01-16T07:36:50;5.78;;;1.90;;
32333;SDS011;18810;53.040;8.850;2023-01-16T07:39:15;3.50;;;1.88;;
32333;SDS011;18810;53.040;8.850;2023-01-16T07:41:41;5.13;;;2.17;;
32333;SDS011;18810;53.040;8.850;2023-01-16T07:44:07;6.85;;;2.70;;
32333;SDS011;18810;53.040;8.850;2023-01-16T07:46:32;4.18;;;2.25;;
32333;SDS011;18810;53.040;8.850;2023-01-16T07:48:58;4.53;;;2.10;;
32333;SDS011;18810;53.040;8.850;2023-01-16T07:51:24;6.15;;;2.25;;
32333;SDS011;18810;53.040;8.850;2023-01-16T07:53:49;6.22;;;2.72;;
32333;SDS011;18810;53.040;8.850;2023-01-16T07:56:15;3.92;;;2.00;;
32333;SDS011;18810;53.040;8.850;2023-01-16T07:58:41;4.45;;;1.98;;
32333;SDS011;18810;53.040;8.850;2023-01-16T08:01:08;4.93;;;2.35;;
32333;SDS011;18810;53.040;8.850;2023-01-16T08:03:34;4.20;;;2.03;;
32333;SDS011;18810;53.040;8.850;2023-01-16T08:06:00;4.25;;;2.28;;
32333;SDS011;18810;53.040;8.850;2023-01-16T08:08:27;4.45;;;2.42;;
32333;SDS011;18810;53.040;8.850;2023-01-16T08:10:56;4.00;;;2.40;;
32333;SDS011;18810;53.040;8.850;2023-01-16T08:13:24;4.10;;;2.00;;
32333;SDS011;18810;53.040;8.850;2023-01-16T08:15:51;7.57;;;1.67;;
32333;SDS011;18810;53.040;8.850;2023-01-16T08:18:17;3.55;;;1.90;;
32333;SDS011;18810;53.040;8.850;2023-01-16T08:20:44;2.58;;;2.10;;
32333;SDS011;18810;53.040;8.850;2023-01-16T08:23:11;3.20;;;2.13;;
32333;SDS011;18810;53.040;8.850;2023-01-16T08:25:37;2.65;;;2.10;;
32333;SDS011;18810;53.040;8.850;2023-01-16T08:28:03;3.33;;;1.83;;
32333;SDS011;18810;53.040;8.850;2023-01-16T08:30:30;5.20;;;2.28;;
32333;SDS011;18810;53.040;8.850;2023-01-16T08:32:59;4.55;;;2.35;;
32333;SDS011;18810;53.040;8.850;2023-01-16T08:35:26;5.88;;;2.17;;
32333;SDS011;18810;53.040;8.850;2023-01-16T08:37:52;4.18;;;2.05;;
32333;SDS011;18810;53.040;8.850;2023-01-16T08:40:18;4.00;;;2.00;;
32333;SDS011;18810;53.040;8.850;2023-01-16T08:42:44;3.65;;;1.90;;
32333;SDS011;18810;53.040;8.850;2023-01-16T08:45:28;2.20;;;1.80;;
32333;SDS011;18810;53.040;8.850;2023-01-16T08:48:14;3.08;;;1.90;;
32333;SDS011;18810;53.040;8.850;2023-01-16T08:51:03;5.72;;;2.03;;
32333;SDS011;18810;53.040;8.850;2023-01-16T08:53:47;3.70;;;1.80;;
32333;SDS011;18810;53.040;8.850;2023-01-16T08:56:12;4.53;;;2.17;;
32333;SDS011;18810;53.040;8.850;2023-01-16T08:58:38;4.55;;;3.22;;
32333;SDS011;18810;53.040;8.850;2023-01-16T09:01:04;2.33;;;1.75;;
32333;SDS011;18810;53.040;8.850;2023-01-16T09:03:30;2.72;;;1.70;;
32333;SDS011;18810;53.040;8.850;2023-01-16T09:05:56;5.43;;;2.47;;
32333;SDS011;18810;53.040;8.850;2023-01-16T09:08:21;5.32;;;2.30;;
32333;SDS011;18810;53.040;8.850;2023-01-16T09:10:47;4.25;;;2.25;;
32333;SDS011;18810;53.040;8.850;2023-01-16T09:13:31;5.88;;;2.30;;
32333;SDS011;18810;53.040;8.850;2023-01-16T09:16:16;4.85;;;2.33;;
32333;SDS011;18810;53.040;8.850;2023-01-16T09:21:11;3.95;;;2.30;;
32333;SDS011;18810;53.040;8.850;2023-01-16T09:23:37;6.38;;;2.80;;
32333;SDS011;18810;53.040;8.850;2023-01-16T09:26:03;4.15;;;1.80;;
32333;SDS011;18810;53.040;8.850;2023-01-16T09:28:29;3.28;;;2.10;;
32333;SDS011;18810;53.040;8.850;2023-01-16T09:30:55;3.63;;;2.25;;
32333;SDS011;18810;53.040;8.850;2023-01-16T09:33:20;3.70;;;2.03;;
32333;SDS011;18810;53.040;8.850;2023-01-16T09:35:46;3.42;;;2.15;;
32333;SDS011;18810;53.040;8.850;2023-01-16T09:38:12;4.70;;;2.60;;
32333;SDS011;18810;53.040;8.850;2023-01-16T09:40:37;9.88;;;2.65;;
32333;SDS011;18810;53.040;8.850;2023-01-16T09:45:54;5.75;;;2.47;;
32333;SDS011;18810;53.040;8.850;2023-01-16T09:48:26;3.08;;;2.42;;
32333;SDS011;18810;53.040;8.850;2023-01-16T09:50:57;2.75;;;2.50;;
32333;SDS011;18810;53.040;8.850;2023-01-16T09:56:18;4.90;;;2.40;;
32333;SDS011;18810;53.040;8.850;2023-01-16T09:59:16;6.40;;;2.40;;
32333;SDS011;18810;53.040;8.850;2023-01-16T10:02:38;6.78;;;2.58;;
32333;SDS011;18810;53.040;8.850;2023-01-16T10:04:45;4.57;;;2.45;;
32333;SDS011;18810;53.040;8.850;2023-01-16T10:12:26;5.00;;;2.30;;
32333;SDS011;18810;53.040;8.850;2023-01-16T10:15:01;3.92;;;2.80;;
32333;SDS011;18810;53.040;8.850;2023-01-16T10:17:47;4.95;;;2.17;;
32333;SDS011;18810;53.040;8.850;2023-01-16T10:20:30;3.95;;;2.05;;
32333;SDS011;18810;53.040;8.850;2023-01-16T10:23:15;6.25;;;2.83;;
32333;SDS011;18810;53.040;8.850;2023-01-16T10:25:58;3.67;;;2.25;;
32333;SDS011;18810;53.040;8.850;2023-01-16T10:31:14;4.45;;;2.25;;
32333;SDS011;18810;53.040;8.850;2023-01-16T10:36:25;3.78;;;2.30;;
32333;SDS011;18810;53.040;8.850;2023-01-16T10:38:56;2.78;;;2.13;;
32333;SDS011;18810;53.040;8.850;2023-01-16T10:47:20;2.72;;;1.98;;
32333;SDS011;18810;53.040;8.850;2023-01-16T10:50:17;2.75;;;2.00;;
32333;SDS011;18810;53.040;8.850;2023-01-16T10:52:45;5.97;;;2.72;;
32333;SDS011;18810;53.040;8.850;2023-01-16T10:55:13;3.97;;;1.90;;
32333;SDS011;18810;53.040;8.850;2023-01-16T10:57:47;4.45;;;1.85;;
32333;SDS011;18810;53.040;8.850;2023-01-16T11:00:17;2.75;;;1.77;;
32333;SDS011;18810;53.040;8.850;2023-01-16T11:02:47;4.47;;;1.80;;
32333;SDS011;18810;53.040;8.850;2023-01-16T11:05:24;2.65;;;2.10;;
32333;SDS011;18810;53.040;8.850;2023-01-16T11:07:52;2.95;;;2.03;;
32333;SDS011;18810;53.040;8.850;2023-01-16T11:10:20;3.78;;;1.85;;
32333;SDS011;18810;53.040;8.850;2023-01-16T11:12:46;3.47;;;1.80;;
32333;SDS011;18810;53.040;8.850;2023-01-16T11:15:31;2.95;;;1.60;;
32333;SDS011;18810;53.040;8.850;2023-01-16T11:18:21;3.10;;;1.80;;
32333;SDS011;18810;53.040;8.850;2023-01-16T11:20:55;2.80;;;1.83;;
32333;SDS011;18810;53.040;8.850;2023-01-16T11:23:27;4.30;;;2.00;;
32333;SDS011;18810;53.040;8.850;2023-01-16T11:26:01;2.78;;;2.00;;
32333;SDS011;18810;53.040;8.850;2023-01-16T11:28:31;4.72;;;2.83;;
32333;SDS011;18810;53.040;8.850;2023-01-16T11:30:59;2.53;;;2.08;;
32333;SDS011;18810;53.040;8.850;2023-01-16T11:33:32;5.35;;;2.08;;
32333;SDS011;18810;53.040;8.850;2023-01-16T11:36:01;5.18;;;2.22;;
32333;SDS011;18810;53.040;8.850;2023-01-16T11:38:29;3.03;;;2.17;;
32333;SDS011;18810;53.040;8.850;2023-01-16T11:41:07;3.40;;;2.55;;
32333;SDS011;18810;53.040;8.850;2023-01-16T11:43:34;5.63;;;2.47;;
32333;SDS011;18810;53.040;8.850;2023-01-16T11:46:21;2.40;;;1.98;;
32333;SDS011;18810;53.040;8.850;2023-01-16T11:48:55;3.40;;;1.73;;
32333;SDS011;18810;53.040;8.850;2023-01-16T11:51:28;3.20;;;2.35;;
32333;SDS011;18810;53.040;8.850;2023-01-16T11:53:56;5.32;;;2.08;;
32333;SDS011;18810;53.040;8.850;2023-01-16T11:56:28;4.03;;;2.05;;
32333;SDS011;18810;53.040;8.850;2023-01-16T12:04:54;5.45;;;2.20;;
32333;SDS011;18810;53.040;8.850;2023-01-16T12:16:50;4.28;;;2.55;;
32333;SDS011;18810;53.040;8.850;2023-01-16T12:22:15;6.25;;;2.80;;
32333;SDS011;18810;53.040;8.850;2023-01-16T12:30:24;5.35;;;3.13;;
32333;SDS011;18810;53.040;8.850;2023-01-16T12:35:54;7.03;;;3.33;;
32333;SDS011;18810;53.040;8.850;2023-01-16T12:38:27;7.32;;;3.28;;
32333;SDS011;18810;53.040;8.850;2023-01-16T13:03:30;6.40;;;2.33;;
32333;SDS011;18810;53.040;8.850;2023-01-16T13:06:00;4.78;;;2.35;;
32333;SDS011;18810;53.040;8.850;2023-01-16T13:08:36;4.35;;;1.55;;
32333;SDS011;18810;53.040;8.850;2023-01-16T13:11:16;3.03;;;1.67;;
32333;SDS011;18810;53.040;8.850;2023-01-16T13:14:08;4.03;;;1.90;;
32333;SDS011;18810;53.040;8.850;2023-01-16T13:19:27;4.50;;;2.00;;
32333;SDS011;18810;53.040;8.850;2023-01-16T13:24:31;3.40;;;1.80;;
32333;SDS011;18810;53.040;8.850;2023-01-16T13:27:09;6.18;;;2.17;;
32333;SDS011;18810;53.040;8.850;2023-01-16T13:29:45;7.88;;;1.92;;
32333;SDS011;18810;53.040;8.850;2023-01-16T13:32:30;4.50;;;1.60;;
32333;SDS011;18810;53.040;8.850;2023-01-16T13:35:04;3.65;;;1.65;;
32333;SDS011;18810;53.040;8.850;2023-01-16T13:43:08;2.72;;;1.60;;
32333;SDS011;18810;53.040;8.850;2023-01-16T13:46:00;4.90;;;1.83;;
32333;SDS011;18810;53.040;8.850;2023-01-16T13:48:28;3.20;;;2.00;;
32333;SDS011;18810;53.040;8.850;2023-01-16T13:51:00;6.63;;;2.08;;
32333;SDS011;18810;53.040;8.850;2023-01-16T13:53:28;2.70;;;1.60;;
32333;SDS011;18810;53.040;8.850;2023-01-16T13:56:15;5.75;;;1.50;;
32333;SDS011;18810;53.040;8.850;2023-01-16T13:58:58;3.10;;;1.65;;
32333;SDS011;18810;53.040;8.850;2023-01-16T14:01:34;3.90;;;1.50;;
32333;SDS011;18810;53.040;8.850;2023-01-16T14:06:48;5.72;;;1.88;;
32333;SDS011;18810;53.040;8.850;2023-01-16T14:10:14;4.00;;;1.88;;
32333;SDS011;18810;53.040;8.850;2023-01-16T14:12:42;1.50;;;1.40;;
32333;SDS011;18810;53.040;8.850;2023-01-16T14:15:15;4.88;;;1.80;;
32333;SDS011;18810;53.040;8.850;2023-01-16T14:18:14;2.13;;;1.90;;
32333;SDS011;18810;53.040;8.850;2023-01-16T14:23:23;3.95;;;1.80;;
32333;SDS011;18810;53.040;8.850;2023-01-16T14:26:24;3.05;;;1.95;;
32333;SDS011;18810;53.040;8.850;2023-01-16T14:28:59;4.00;;;1.88;;
32333;SDS011;18810;53.040;8.850;2023-01-16T14:31:38;6.63;;;1.80;;
32333;SDS011;18810;53.040;8.850;2023-01-16T14:34:15;2.92;;;1.70;;
32333;SDS011;18810;53.040;8.850;2023-01-16T14:36:42;3.72;;;2.00;;
32333;SDS011;18810;53.040;8.850;2023-01-16T14:41:56;3.40;;;1.70;;
32333;SDS011;18810;53.040;8.850;2023-01-16T14:51:27;5.70;;;2.28;;
32333;SDS011;18810;53.040;8.850;2023-01-16T14:57:22;2.53;;;1.80;;
32333;SDS011;18810;53.040;8.850;2023-01-16T14:59:58;4.35;;;1.77;;
32333;SDS011;18810;53.040;8.850;2023-01-16T15:02:53;2.63;;;1.80;;
32333;SDS011;18810;53.040;8.850;2023-01-16T15:05:24;1.88;;;1.67;;
32333;SDS011;18810;53.040;8.850;2023-01-16T15:08:28;3.40;;;1.80;;
32333;SDS011;18810;53.040;8.850;2023-01-16T15:10:57;2.15;;;1.73;;
32333;SDS011;18810;53.040;8.850;2023-01-16T15:14:13;1.67;;;1.52;;
32333;SDS011;18810;53.040;8.850;2023-01-16T15:20:01;2.17;;;1.50;;
32333;SDS011;18810;53.040;8.850;2023-01-16T15:31:20;3.60;;;1.63;;
32333;SDS011;18810;53.040;8.850;2023-01-16T15:36:49;2.70;;;1.60;;
32333;SDS011;18810;53.040;8.850;2023-01-16T15:39:27;2.17;;;1.80;;
32333;SDS011;18810;53.040;8.850;2023-01-16T15:42:07;3.13;;;2.20;;
32333;SDS011;18810;53.040;8.850;2023-01-16T15:44:58;3.95;;;2.13;;
32333;SDS011;18810;53.040;8.850;2023-01-16T15:53:20;4.15;;;2.00;;
32333;SDS011;18810;53.040;8.850;2023-01-16T15:58:21;2.60;;;1.98;;
32333;SDS011;18810;53.040;8.850;2023-01-16T16:00:53;2.92;;;1.83;;
32333;SDS011;18810;53.040;8.850;2023-01-16T16:03:21;4.07;;;2.13;;
32333;SDS011;18810;53.040;8.850;2023-01-16T16:06:02;4.78;;;2.15;;
32333;SDS011;18810;53.040;8.850;2023-01-16T16:08:30;3.78;;;2.10;;
32333;SDS011;18810;53.040;8.850;2023-01-16T16:11:00;2.73;;;2.53;;
32333;SDS011;18810;53.040;8.850;2023-01-16T16:13:49;4.88;;;2.10;;
32333;SDS011;18810;53.040;8.850;2023-01-16T16:16:22;1.52;;;1.42;;
32333;SDS011;18810;53.040;8.850;2023-01-16T16:19:08;9.70;;;4.25;;
32333;SDS011;18810;53.040;8.850;2023-01-16T16:21:42;9.20;;;4.13;;
32333;SDS011;18810;53.040;8.850;2023-01-16T16:24:31;3.55;;;2.30;;
32333;SDS011;18810;53.040;8.850;2023-01-16T16:26:58;2.03;;;1.67;;
32333;SDS011;18810;53.040;8.850;2023-01-16T16:29:32;3.20;;;1.85;;
32333;SDS011;18810;53.040;8.850;2023-01-16T16:32:03;4.30;;;2.03;;
32333;SDS011;18810;53.040;8.850;2023-01-16T16:36:56;4.85;;;2.42;;
32333;SDS011;18810;53.040;8.850;2023-01-16T16:47:38;3.22;;;2.72;;
32333;SDS011;18810;53.040;8.850;2023-01-16T16:50:42;3.72;;;2.08;;
32333;SDS011;18810;53.040;8.850;2023-01-16T16:53:12;2.80;;;2.35;;
32333;SDS011;18810;53.040;8.850;2023-01-16T16:55:47;2.40;;;1.75;;
32333;SDS011;18810;53.040;8.850;2023-01-16T17:00:47;2.60;;;1.88;;
32333;SDS011;18810;53.040;8.850;2023-01-16T17:03:31;2.83;;;2.17;;
32333;SDS011;18810;53.040;8.850;2023-01-16T17:05:56;2.55;;;2.10;;
32333;SDS011;18810;53.040;8.850;2023-01-16T17:08:26;1.88;;;1.58;;
32333;SDS011;18810;53.040;8.850;2023-01-16T17:10:56;1.63;;;1.52;;
32333;SDS011;18810;53.040;8.850;2023-01-16T17:13:22;2.63;;;1.85;;
32333;SDS011;18810;53.040;8.850;2023-01-16T17:15:50;2.10;;;1.75;;
32333;SDS011;18810;53.040;8.850;2023-01-16T17:18:18;2.88;;;1.85;;
32333;SDS011;18810;53.040;8.850;2023-01-16T17:20:44;2.55;;;1.73;;
32333;SDS011;18810;53.040;8.850;2023-01-16T17:23:11;1.80;;;1.67;;
32333;SDS011;18810;53.040;8.850;2023-01-16T17:25:39;1.98;;;1.73;;
32333;SDS011;18810;53.040;8.850;2023-01-16T17:28:06;2.03;;;1.63;;
32333;SDS011;18810;53.040;8.850;2023-01-16T17:30:32;1.98;;;1.80;;
32333;SDS011;18810;53.040;8.850;2023-01-16T17:33:05;2.28;;;2.08;;
32333;SDS011;18810;53.040;8.850;2023-01-16T17:35:39;2.60;;;2.05;;
32333;SDS011;18810;53.040;8.850;2023-01-16T17:38:12;4.05;;;2.97;;
32333;SDS011;18810;53.040;8.850;2023-01-16T17:40:45;3.05;;;2.75;;
32333;SDS011;18810;53.040;8.850;2023-01-16T17:43:15;3.45;;;2.60;;
32333;SDS011;18810;53.040;8.850;2023-01-16T17:46:12;4.13;;;2.67;;
32333;SDS011;18810;53.040;8.850;2023-01-16T17:48:39;3.55;;;2.30;;
32333;SDS011;18810;53.040;8.850;2023-01-16T17:51:05;2.83;;;2.40;;
32333;SDS011;18810;53.040;8.850;2023-01-16T17:53:31;3.10;;;2.25;;
32333;SDS011;18810;53.040;8.850;2023-01-16T17:55:58;3.90;;;3.42;;
32333;SDS011;18810;53.040;8.850;2023-01-16T17:58:36;2.90;;;2.60;;
32333;SDS011;18810;53.040;8.850;2023-01-16T18:01:33;6.32;;;3.40;;
32333;SDS011;18810;53.040;8.850;2023-01-16T18:03:58;5.10;;;3.47;;
32333;SDS011;18810;53.040;8.850;2023-01-16T18:06:25;3.85;;;3.55;;
32333;SDS011;18810;53.040;8.850;2023-01-16T18:08:51;4.60;;;2.85;;
32333;SDS011;18810;53.040;8.850;2023-01-16T18:11:18;4.00;;;2.88;;
32333;SDS011;18810;53.040;8.850;2023-01-16T18:14:03;2.80;;;2.58;;
32333;SDS011;18810;53.040;8.850;2023-01-16T18:16:48;2.78;;;2.53;;
32333;SDS011;18810;53.040;8.850;2023-01-16T18:19:32;5.32;;;2.60;;
32333;SDS011;18810;53.040;8.850;2023-01-16T18:21:58;4.03;;;2.42;;
32333;SDS011;18810;53.040;8.850;2023-01-16T18:24:30;3.05;;;2.40;;
32333;SDS011;18810;53.040;8.850;2023-01-16T18:26:57;6.27;;;2.60;;
32333;SDS011;18810;53.040;8.850;2023-01-16T18:29:24;2.42;;;2.22;;